Terminal Aerodrome Forecast
Issued by NWS

Home | Current Version | Previous Version | Graphics & Text | Print | Product List | Glossary On
Versions: 1 2 3 4 5 6 7 8 9 10 11 12 13 14 15 16 17 18 19
000
FTUS43 KABR 160700 AAA
TAFATY
TAF AMD
KATY 160751Z 1608/1706 18015KT P6SM BKN025 OVC040
     FM161100 19006KT P6SM OVC025
     FM161800 33007KT P6SM BKN050=

USA.gov is the U.S. government's official web portal to all federal, state and local government web resources and services.